Time;durP1;ratioP1;P1;durP2;ratioP2;P2;SDS_P1;SDS_P2;PMS_P1;PMS_P2;Temp;Humidity;BMP_temperature;BMP_pressure;BME280_temperature;BME280_humidity;BME280_pressure;Samples;Min_cycle;Max_cycle;Signal;HPM_P1;HPM_P2
2023/10/18 00:00:19;;;;;;;22.77;15.98;;;;;;;6.08;73.28;98837.16;5011982;28;20064;-82
2023/10/18 00:02:46;;;;;;;22.13;14.75;;;;;;;6.16;73.19;98844.00;4993423;28;20396;-82
2023/10/18 00:05:12;;;;;;;22.92;15.70;;;;;;;6.10;73.44;98855.47;5011141;28;20463;-82
2023/10/18 00:07:38;;;;;;;22.17;16.17;;;;;;;6.16;72.75;98838.72;5014328;28;20159;-81
2023/10/18 00:10:04;;;;;;;24.40;16.05;;;;;;;6.24;73.02;98835.75;4997571;28;20112;-81
2023/10/18 00:12:33;;;;;;;26.00;16.27;;;;;;;6.14;73.17;98840.78;5011080;28;20032;-81
2023/10/18 00:14:59;;;;;;;25.42;16.30;;;;;;;6.14;73.25;98841.56;5028061;28;20036;-81
2023/10/18 00:17:24;;;;;;;24.73;15.85;;;;;;;6.19;73.09;98838.25;4991488;28;20033;-81
2023/10/18 00:19:49;;;;;;;23.67;16.15;;;;;;;6.14;73.20;98830.19;4988929;28;20033;-81
2023/10/18 00:22:15;;;;;;;23.77;16.20;;;;;;;5.77;73.40;98786.91;5011552;28;20033;-81
2023/10/18 00:24:40;;;;;;;22.67;16.30;;;;;;;6.06;73.58;98828.59;5010123;28;20034;-81
2023/10/18 00:27:06;;;;;;;24.40;16.50;;;;;;;6.03;73.33;98831.69;5009479;28;20481;-81
2023/10/18 00:29:32;;;;;;;23.25;16.95;;;;;;;5.97;73.51;98836.03;4999347;28;20033;-81
2023/10/18 00:31:59;;;;;;;24.52;16.05;;;;;;;5.90;74.08;98819.41;4998278;28;20036;-81
2023/10/18 00:34:24;;;;;;;30.52;17.33;;;;;;;5.96;73.77;98829.09;5027959;28;20154;-82
2023/10/18 00:36:50;;;;;;;24.67;16.92;;;;;;;5.94;74.00;98825.09;4992451;28;20057;-81
2023/10/18 00:39:27;;;;;;;24.45;15.65;;;;;;;5.98;74.05;98832.34;5008224;28;20056;-81
2023/10/18 00:41:53;;;;;;;23.85;16.70;;;;;;;5.89;74.26;98823.09;4997378;28;20026;-81
2023/10/18 00:44:22;;;;;;;23.13;16.73;;;;;;;5.97;74.45;98830.75;5013110;28;20401;-82
2023/10/18 00:46:56;;;;;;;23.10;16.70;;;;;;;5.90;74.65;98808.81;5010585;28;20526;-81
2023/10/18 00:49:21;;;;;;;24.70;17.98;;;;;;;6.05;74.07;98824.31;5007802;28;20052;-82
2023/10/18 00:51:48;;;;;;;28.27;17.08;;;;;;;5.99;74.54;98827.88;5011551;28;20030;-81
2023/10/18 00:54:14;;;;;;;27.95;18.42;;;;;;;6.00;74.97;98819.72;5029058;28;20033;-81
2023/10/18 00:56:46;;;;;;;27.30;18.38;;;;;;;5.96;74.37;98818.50;5007300;28;20025;-82
2023/10/18 00:59:26;;;;;;;22.90;16.75;;;;;;;5.96;74.99;98817.72;5005616;28;20084;-81
2023/10/18 01:01:59;;;;;;;29.45;17.23;;;;;;;5.99;74.67;98833.97;5013389;28;20036;-81
2023/10/18 01:04:28;;;;;;;22.02;16.45;;;;;;;5.95;74.68;98824.84;5010815;28;20041;-81
2023/10/18 01:06:57;;;;;;;23.42;16.02;;;;;;;5.69;74.85;98811.84;5010649;28;20022;-81
2023/10/18 01:09:23;;;;;;;27.33;18.35;;;;;;;5.88;75.17;98813.50;5010926;28;20432;-81
2023/10/18 01:11:49;;;;;;;27.10;18.85;;;;;;;5.81;74.57;98814.59;5011067;28;20033;-81
2023/10/18 01:14:17;;;;;;;26.98;17.65;;;;;;;5.85;74.13;98821.88;5008609;28;20030;-82
2023/10/18 01:16:46;;;;;;;29.50;19.27;;;;;;;5.75;74.74;98805.66;4995723;28;20030;-81
2023/10/18 01:19:14;;;;;;;23.35;17.45;;;;;;;5.91;74.88;98817.56;5005331;28;20488;-81
2023/10/18 01:21:45;;;;;;;29.50;17.63;;;;;;;5.63;74.32;98775.66;4994552;28;20444;-81
2023/10/18 01:24:14;;;;;;;26.58;17.20;;;;;;;5.84;73.86;98812.34;5028049;28;20064;-81
2023/10/18 01:26:40;;;;;;;27.75;17.60;;;;;;;5.80;74.16;98797.06;5005741;28;20075;-82
2023/10/18 01:29:09;;;;;;;29.70;18.02;;;;;;;5.82;74.30;98802.94;4991397;28;20093;-82
2023/10/18 01:31:36;;;;;;;29.60;18.13;;;;;;;5.65;74.83;98805.34;5026882;28;20125;-81
2023/10/18 01:34:05;;;;;;;28.15;17.50;;;;;;;5.70;74.96;98797.56;5007372;28;20040;-82
2023/10/18 01:36:32;;;;;;;28.77;19.38;;;;;;;5.76;74.74;98795.88;5008691;28;20462;-81
2023/10/18 01:38:58;;;;;;;27.15;17.13;;;;;;;5.83;74.70;98794.78;5008254;28;20374;-81
2023/10/18 01:41:28;;;;;;;28.25;18.52;;;;;;;5.81;74.81;98794.19;5024087;28;20065;-82
2023/10/18 01:44:06;;;;;;;31.17;19.40;;;;;;;5.82;74.40;98793.16;4978201;28;20029;-81
2023/10/18 01:46:46;;;;;;;26.77;17.80;;;;;;;5.74;74.83;98790.00;5007837;28;20129;-81
2023/10/18 01:49:16;;;;;;;30.88;18.38;;;;;;;5.64;75.66;98779.09;5008797;28;20039;-82
2023/10/18 01:51:44;;;;;;;29.17;18.08;;;;;;;5.71;75.24;98783.31;4997300;28;20021;-82
2023/10/18 01:54:13;;;;;;;26.67;18.45;;;;;;;5.66;74.88;98785.78;5012079;28;20044;-81
2023/10/18 01:56:41;;;;;;;28.02;18.35;;;;;;;5.69;75.13;98795.94;4997802;28;20068;-82
2023/10/18 01:59:08;;;;;;;26.90;18.08;;;;;;;5.65;75.52;98784.19;5034981;28;20044;-81
2023/10/18 02:01:34;;;;;;;31.67;19.13;;;;;;;5.54;75.61;98782.25;5010735;28;20052;-82
2023/10/18 02:04:02;;;;;;;28.08;18.50;;;;;;;5.47;76.29;98778.84;5031213;28;20084;-82
2023/10/18 02:06:28;;;;;;;27.77;18.80;;;;;;;5.51;75.91;98772.06;5032392;28;20040;-82
2023/10/18 02:08:53;;;;;;;29.73;18.85;;;;;;;5.67;75.60;98776.81;4992991;28;20034;-81
2023/10/18 02:11:19;;;;;;;29.35;18.90;;;;;;;5.63;75.85;98783.59;5011867;28;20040;-82
2023/10/18 02:13:44;;;;;;;25.13;17.70;;;;;;;5.57;75.44;98770.41;5014867;28;20579;-81
2023/10/18 02:16:14;;;;;;;28.85;18.92;;;;;;;5.50;75.79;98764.38;5031262;28;20022;-82
2023/10/18 02:18:39;;;;;;;30.48;19.13;;;;;;;5.39;75.74;98759.78;5013742;28;20021;-81
2023/10/18 02:21:05;;;;;;;29.65;18.67;;;;;;;5.45;75.64;98761.56;5012947;28;20041;-81
2023/10/18 02:23:37;;;;;;;28.15;17.58;;;;;;;5.43;75.92;98755.66;5013044;28;20068;-82
2023/10/18 02:28:50;;;;;;;28.17;18.27;;;;;;;5.38;75.58;98756.31;5024841;28;20080;-82
2023/10/18 02:31:21;;;;;;;26.23;17.83;;;;;;;5.27;75.52;98747.25;5011496;28;20041;-81
2023/10/18 02:33:48;;;;;;;28.98;17.27;;;;;;;5.63;74.88;98754.47;5007351;28;20041;-81
2023/10/18 02:38:57;;;;;;;31.98;17.75;;;;;;;5.57;73.57;98750.03;5024292;28;20536;-82
2023/10/18 02:41:29;;;;;;;24.92;17.88;;;;;;;5.60;74.30;98764.66;4998367;28;20048;-81
2023/10/18 02:43:55;;;;;;;24.73;16.95;;;;;;;5.29;75.11;98741.75;5031887;28;20021;-81
2023/10/18 02:46:25;;;;;;;27.77;18.50;;;;;;;5.49;74.47;98752.97;4996513;28;20030;-82
2023/10/18 02:48:52;;;;;;;26.05;17.27;;;;;;;5.47;74.74;98768.25;5013347;28;20030;-82
2023/10/18 02:51:25;;;;;;;24.98;17.70;;;;;;;5.37;74.75;98753.91;5009230;28;20527;-82
2023/10/18 02:54:04;;;;;;;26.40;16.98;;;;;;;5.33;75.00;98756.16;5032354;28;20087;-81
2023/10/18 02:56:37;;;;;;;26.67;17.92;;;;;;;5.35;74.41;98746.19;5029793;28;20058;-82
2023/10/18 02:59:09;;;;;;;27.05;17.85;;;;;;;5.32;74.82;98754.53;4983159;28;20136;-82
2023/10/18 03:01:40;;;;;;;24.52;15.70;;;;;;;5.48;74.62;98740.78;5009415;28;20033;-81
2023/10/18 03:04:11;;;;;;;24.45;17.50;;;;;;;5.50;73.93;98749.31;4996129;28;20485;-81
2023/10/18 03:06:37;;;;;;;28.05;16.65;;;;;;;5.46;73.62;98736.72;4998433;28;20628;-82
2023/10/18 03:09:05;;;;;;;31.33;18.85;;;;;;;5.37;73.69;98738.84;4993084;28;20037;-82
2023/10/18 03:11:32;;;;;;;26.27;17.83;;;;;;;5.36;74.03;98731.09;5010046;28;20485;-81
2023/10/18 03:13:58;;;;;;;28.30;18.40;;;;;;;5.43;73.97;98755.66;5014472;28;20029;-82
2023/10/18 03:18:59;;;;;;;26.80;16.00;;;;;;;5.44;74.17;98738.78;5027980;28;20029;-82
2023/10/18 03:21:26;;;;;;;25.67;17.98;;;;;;;5.24;74.42;98729.16;5011994;28;20036;-82
2023/10/18 03:23:52;;;;;;;27.02;18.00;;;;;;;5.22;74.19;98741.00;5030351;28;20029;-82
2023/10/18 03:26:22;;;;;;;29.17;17.45;;;;;;;5.23;74.54;98729.38;5011485;28;20132;-82
2023/10/18 03:28:50;;;;;;;29.67;19.23;;;;;;;5.21;74.80;98719.03;4991738;28;20030;-82
2023/10/18 03:31:40;;;;;;;29.63;19.23;;;;;;;5.28;73.92;98716.31;5032124;28;20065;-81
2023/10/18 03:34:02;;;;;;;;;;;;;;;5.36;74.33;98716.03;5030751;28;20423;-81
2023/10/18 03:36:48;;;;;;;28.40;18.07;;;;;;;5.21;74.51;98705.81;5011746;28;19924;-82
2023/10/18 03:39:18;;;;;;;30.67;17.23;;;;;;;5.24;73.88;98715.16;5014492;28;20056;-81
2023/10/18 03:41:44;;;;;;;26.48;18.08;;;;;;;5.15;73.40;98682.88;4994966;28;20037;-81
2023/10/18 03:44:09;;;;;;;28.63;18.08;;;;;;;4.98;74.99;98708.22;5014104;28;20025;-82
2023/10/18 03:46:38;;;;;;;33.42;19.45;;;;;;;4.44;76.19;98698.25;5010964;28;20026;-81
2023/10/18 03:49:16;;;;;;;30.30;18.38;;;;;;;4.87;74.71;98702.84;5013520;28;20032;-82
2023/10/18 03:51:42;;;;;;;33.85;19.67;;;;;;;4.97;74.44;98682.00;4996799;28;20048;-81
2023/10/18 03:54:14;;;;;;;28.75;19.80;;;;;;;4.96;74.52;98680.38;5031050;28;20029;-81
2023/10/18 03:56:42;;;;;;;30.75;19.02;;;;;;;4.99;74.64;98679.94;5011418;28;20044;-82
2023/10/18 03:59:25;;;;;;;30.00;19.50;;;;;;;5.01;75.20;98685.81;5030705;28;20025;-81
2023/10/18 04:02:04;;;;;;;31.98;19.95;;;;;;;4.90;74.73;98683.88;4999476;28;20385;-82
2023/10/18 04:04:44;;;;;;;34.03;19.27;;;;;;;5.22;73.81;98682.81;5011907;28;20671;-82
2023/10/18 04:07:13;;;;;;;30.13;17.98;;;;;;;5.16;74.82;98683.66;4984893;28;20030;-81
2023/10/18 04:09:45;;;;;;;30.65;19.25;;;;;;;5.13;74.37;98690.19;5011859;28;20156;-82
2023/10/18 04:12:13;;;;;;;29.77;19.20;;;;;;;5.07;74.56;98675.19;4996654;28;20040;-81
2023/10/18 04:14:39;;;;;;;30.52;19.30;;;;;;;5.14;74.62;98677.78;4996175;28;20411;-81
2023/10/18 04:17:09;;;;;;;30.48;20.23;;;;;;;5.14;74.52;98681.22;5009649;28;20057;-82
2023/10/18 04:19:35;;;;;;;30.48;18.88;;;;;;;4.97;75.06;98690.75;5028511;28;20094;-81
2023/10/18 04:22:03;;;;;;;29.85;20.20;;;;;;;5.08;74.86;98674.19;5029490;28;20112;-82
2023/10/18 04:24:28;;;;;;;33.47;19.70;;;;;;;5.18;74.50;98687.69;4997249;28;20040;-81
2023/10/18 04:26:56;;;;;;;31.27;19.42;;;;;;;5.14;74.59;98680.41;5028515;28;20026;-82
2023/10/18 04:29:32;;;;;;;30.67;20.42;;;;;;;5.04;74.59;98686.22;4991665;28;20045;-81
2023/10/18 04:31:58;;;;;;;33.38;20.90;;;;;;;5.05;75.12;98684.34;5029578;28;20476;-81
2023/10/18 04:34:24;;;;;;;28.75;18.92;;;;;;;5.02;75.79;98674.22;5010789;28;20041;-82
2023/10/18 04:36:51;;;;;;;28.63;18.95;;;;;;;4.98;75.35;98665.91;5029700;28;20051;-81
2023/10/18 04:39:20;;;;;;;31.23;20.52;;;;;;;4.86;75.96;98658.91;4994937;28;20029;-82
2023/10/18 04:41:45;;;;;;;30.83;19.38;;;;;;;4.90;76.27;98657.44;5029123;28;20022;-82
2023/10/18 04:44:18;;;;;;;32.78;20.40;;;;;;;4.80;76.36;98662.41;5028248;28;20021;-82
2023/10/18 04:46:47;;;;;;;32.97;19.58;;;;;;;4.83;75.69;98669.91;5010480;28;20022;-82
2023/10/18 04:49:21;;;;;;;35.00;19.88;;;;;;;4.92;76.07;98655.38;4978597;28;20061;-81
2023/10/18 04:51:48;;;;;;;26.43;19.23;;;;;;;4.93;75.74;98649.91;5012821;28;20435;-82
2023/10/18 04:54:35;;;;;;;31.45;19.38;;;;;;;4.89;75.77;98650.53;5012598;28;20029;-81
2023/10/18 04:57:04;;;;;;;34.88;19.73;;;;;;;4.90;75.63;98650.31;5006604;28;20026;-82
2023/10/18 04:59:34;;;;;;;28.52;18.15;;;;;;;4.90;75.04;98641.56;5011397;28;20034;-82
2023/10/18 05:01:59;;;;;;;31.52;18.77;;;;;;;4.84;75.59;98647.75;4994619;28;20075;-82
2023/10/18 05:04:25;;;;;;;32.65;20.10;;;;;;;4.80;75.66;98657.94;5013518;28;20037;-82
2023/10/18 05:06:55;;;;;;;31.42;19.98;;;;;;;4.71;75.90;98645.19;5033072;28;20024;-82
2023/10/18 05:09:29;;;;;;;35.45;21.00;;;;;;;4.74;75.61;98650.06;4983321;28;20547;-82
2023/10/18 05:14:42;;;;;;;28.85;18.50;;;;;;;4.94;75.20;98638.28;5018548;28;20033;-82
2023/10/18 05:17:18;;;;;;;31.20;20.02;;;;;;;4.81;74.99;98621.72;4998258;28;20029;-82
2023/10/18 05:19:44;;;;;;;31.65;18.98;;;;;;;5.03;74.50;98639.63;5012308;28;20604;-82
2023/10/18 05:22:17;;;;;;;29.55;20.40;;;;;;;4.97;74.67;98642.34;5011748;28;20044;-82
2023/10/18 05:24:54;;;;;;;31.20;21.95;;;;;;;4.98;74.62;98633.38;5015177;28;20029;-82
2023/10/18 05:27:27;;;;;;;31.75;21.15;;;;;;;4.76;75.18;98640.88;5016949;28;20366;-82
2023/10/18 05:29:58;;;;;;;30.40;21.02;;;;;;;4.67;76.18;98636.91;5010466;28;20455;-82
2023/10/18 05:32:47;;;;;;;30.23;19.95;;;;;;;4.71;76.05;98645.19;5009203;28;20029;-82
2023/10/18 05:35:26;;;;;;;31.40;20.25;;;;;;;4.81;75.26;98629.66;5029161;28;20431;-81
2023/10/18 05:43:12;;;;;;;36.17;21.10;;;;;;;4.88;74.71;98625.13;5011817;28;20032;-82
2023/10/18 05:45:40;;;;;;;;;;;;;;;4.80;75.19;98643.91;5014278;28;20172;-81
2023/10/18 05:48:13;;;;;;;31.52;19.73;;;;;;;4.67;75.59;98647.47;5002567;28;19917;-81
2023/10/18 05:50:39;;;;;;;33.88;20.05;;;;;;;4.73;75.75;98653.72;5015494;28;20025;-81
2023/10/18 05:53:11;;;;;;;37.30;22.98;;;;;;;4.77;75.13;98637.22;5031634;28;20033;-81
2023/10/18 05:55:38;;;;;;;35.20;23.45;;;;;;;4.69;75.42;98642.78;4995460;28;20128;-81
2023/10/18 05:58:04;;;;;;;39.42;22.83;;;;;;;4.63;76.33;98624.34;5012439;28;20109;-81
2023/10/18 06:00:33;;;;;;;34.03;21.65;;;;;;;4.72;75.51;98633.63;5013484;28;20028;-81
2023/10/18 06:03:02;;;;;;;35.25;20.48;;;;;;;4.69;75.89;98621.63;5013030;28;20481;-81
2023/10/18 06:05:33;;;;;;;32.67;21.60;;;;;;;4.84;76.10;98639.81;5009922;28;20488;-81
2023/10/18 06:07:59;;;;;;;35.10;22.92;;;;;;;4.96;75.36;98630.13;4999047;28;20621;-82
2023/10/18 06:10:26;;;;;;;37.97;21.13;;;;;;;4.88;75.89;98633.88;5013680;28;20072;-81
2023/10/18 06:13:05;;;;;;;32.22;19.52;;;;;;;4.80;75.75;98630.69;5012061;28;20025;-81
2023/10/18 06:15:44;;;;;;;40.35;23.88;;;;;;;4.67;76.14;98630.81;5013807;28;20097;-82
2023/10/18 06:18:16;;;;;;;36.13;22.08;;;;;;;4.79;76.70;98632.50;4984498;28;20088;-82
2023/10/18 06:20:44;;;;;;;32.45;20.92;;;;;;;4.81;76.52;98622.53;5013811;28;20026;-82
2023/10/18 06:23:28;;;;;;;39.10;23.17;;;;;;;4.82;75.82;98628.63;4995373;28;20029;-82
2023/10/18 06:25:57;;;;;;;33.83;20.45;;;;;;;4.71;77.10;98621.41;4999894;28;20044;-82
2023/10/18 06:28:25;;;;;;;31.50;19.10;;;;;;;4.71;77.18;98632.81;4995097;28;20051;-82
2023/10/18 06:30:56;;;;;;;32.67;20.65;;;;;;;4.75;77.17;98628.69;4990281;28;20369;-82
2023/10/18 06:33:22;;;;;;;37.85;21.65;;;;;;;4.72;77.27;98620.41;5026906;28;20029;-82
2023/10/18 06:35:51;;;;;;;37.13;22.17;;;;;;;4.79;76.71;98624.59;5012065;28;20026;-82
2023/10/18 06:38:24;;;;;;;34.90;21.33;;;;;;;4.84;77.32;98626.59;5010029;28;20016;-82
2023/10/18 06:41:00;;;;;;;35.35;21.80;;;;;;;4.88;76.49;98622.47;5010285;28;21143;-82
2023/10/18 06:43:26;;;;;;;39.95;26.00;;;;;;;4.82;77.36;98629.44;5010541;28;20076;-82
2023/10/18 06:45:57;;;;;;;44.88;25.60;;;;;;;4.82;76.79;98623.34;5029812;28;20045;-82
2023/10/18 06:48:26;;;;;;;42.78;26.30;;;;;;;4.86;77.14;98621.88;5007220;28;20037;-82
2023/10/18 06:50:53;;;;;;;37.40;23.80;;;;;;;4.84;77.10;98611.53;4989946;28;20535;-82
2023/10/18 06:53:20;;;;;;;44.25;23.88;;;;;;;4.81;77.56;98606.66;5009531;28;20030;-82
2023/10/18 06:55:55;;;;;;;37.60;23.40;;;;;;;4.93;77.38;98620.81;5005500;28;20112;-82
2023/10/18 07:01:00;;;;;;;32.50;21.60;;;;;;;5.05;77.41;98613.75;5025737;28;20072;-81
2023/10/18 07:03:29;;;;;;;34.20;20.65;;;;;;;4.97;77.21;98595.53;5028812;28;20053;-82
2023/10/18 07:05:57;;;;;;;40.83;21.88;;;;;;;5.11;77.02;98596.22;4994455;28;20037;-82
2023/10/18 07:08:32;;;;;;;37.20;22.35;;;;;;;5.06;77.08;98604.00;5011587;28;20473;-82
2023/10/18 07:11:02;;;;;;;40.07;22.90;;;;;;;5.10;77.67;98598.06;5014672;28;20091;-82
2023/10/18 07:13:46;;;;;;;35.80;21.88;;;;;;;5.25;77.35;98610.91;5030251;28;20021;-82
2023/10/18 07:16:14;;;;;;;33.13;20.17;;;;;;;5.22;77.89;98606.09;5027815;28;20017;-82
2023/10/18 07:18:39;;;;;;;34.13;21.17;;;;;;;5.06;78.59;98596.06;5030476;28;20037;-82
2023/10/18 07:21:06;;;;;;;37.55;22.45;;;;;;;5.08;78.17;98594.00;5032897;28;20043;-82
2023/10/18 07:23:39;;;;;;;33.40;20.52;;;;;;;5.26;78.02;98600.09;4996690;28;20476;-81
2023/10/18 07:26:07;;;;;;;35.38;20.55;;;;;;;5.18;78.09;98587.19;5030552;28;20033;-82
2023/10/18 07:28:35;;;;;;;35.38;22.75;;;;;;;5.09;79.12;98592.97;5011196;28;20033;-81
2023/10/18 07:31:08;;;;;;;34.95;21.17;;;;;;;5.26;78.50;98578.94;5008850;28;20038;-81
2023/10/18 07:33:36;;;;;;;35.25;21.33;;;;;;;5.23;78.52;98574.09;5006339;28;20116;-81
2023/10/18 07:36:02;;;;;;;39.22;23.02;;;;;;;5.31;78.76;98576.44;4994624;28;20033;-81
2023/10/18 07:38:27;;;;;;;39.33;22.88;;;;;;;5.32;78.66;98569.31;5009972;28;20044;-81
2023/10/18 07:40:57;;;;;;;35.70;21.73;;;;;;;5.25;78.24;98555.34;4994876;28;20116;-81
2023/10/18 07:43:25;;;;;;;39.10;22.35;;;;;;;4.92;81.26;98565.47;5010689;28;20539;-81
2023/10/18 07:45:54;;;;;;;33.15;20.42;;;;;;;5.27;79.64;98548.81;5006830;28;20633;-81
2023/10/18 07:48:19;;;;;;;35.80;21.58;;;;;;;5.46;78.03;98546.94;4989042;28;20682;-81
2023/10/18 07:50:50;;;;;;;34.33;20.92;;;;;;;5.58;77.37;98549.66;4991578;28;20086;-81
2023/10/18 07:53:16;;;;;;;32.85;18.65;;;;;;;5.67;78.33;98553.59;5004743;28;20060;-80
2023/10/18 07:55:47;;;;;;;34.78;20.88;;;;;;;5.53;78.71;98545.03;5002789;28;20033;-81
2023/10/18 07:58:22;;;;;;;31.63;19.20;;;;;;;5.68;77.83;98529.56;4966676;28;20401;-81
2023/10/18 08:03:29;;;;;;;31.05;19.52;;;;;;;5.66;78.16;98525.50;4987229;28;20037;-80
2023/10/18 08:05:56;;;;;;;31.70;19.20;;;;;;;5.70;78.56;98522.19;4992655;28;20041;-80
2023/10/18 08:08:25;;;;;;;35.53;21.88;;;;;;;5.58;78.46;98515.25;4980719;28;20112;-80
2023/10/18 08:10:54;;;;;;;30.83;19.27;;;;;;;5.74;78.05;98517.28;4983117;28;20036;-80
2023/10/18 08:13:26;;;;;;;33.30;19.40;;;;;;;5.75;77.73;98519.69;4984089;28;20037;-81
2023/10/18 08:15:56;;;;;;;29.05;18.42;;;;;;;5.82;78.39;98520.41;4986958;28;20033;-80
2023/10/18 08:18:39;;;;;;;30.80;19.23;;;;;;;5.90;77.65;98514.00;4974706;28;20037;-81
2023/10/18 08:21:08;;;;;;;29.80;19.20;;;;;;;5.88;77.89;98511.56;4998698;28;20124;-81
2023/10/18 08:26:05;;;;;;;28.27;18.73;;;;;;;6.03;77.57;98519.91;4988653;28;20069;-80
2023/10/18 08:28:39;;;;;;;29.70;17.90;;;;;;;5.90;78.30;98517.44;4954634;28;20079;-80
2023/10/18 08:31:34;;;;;;;27.77;17.77;;;;;;;6.05;78.16;98520.47;4983902;28;20048;-80
2023/10/18 08:34:10;;;;;;;27.10;18.55;;;;;;;5.96;79.12;98519.19;5013357;28;20504;-81
2023/10/18 08:36:35;;;;;;;;;;;;;;;6.13;78.53;98515.91;5011386;28;20032;-80
2023/10/18 08:39:02;;;;;;;26.43;17.93;;;;;;;6.12;78.34;98511.63;5005015;28;19921;-80
2023/10/18 08:41:32;;;;;;;27.95;18.55;;;;;;;6.03;79.05;98522.56;5032835;28;20044;-80
2023/10/18 08:44:19;;;;;;;29.15;18.98;;;;;;;6.11;79.10;98507.38;5010948;28;20064;-80
2023/10/18 08:47:34;;;;;;;26.45;17.15;;;;;;;6.14;78.98;98506.94;4997096;28;20068;-81
2023/10/18 08:49:50;;;;;;;28.70;17.08;;;;;;;6.14;78.92;98502.41;5000635;28;20049;-81
2023/10/18 08:52:20;;;;;;;31.92;17.92;;;;;;;6.20;78.99;98514.78;4995337;28;20034;-80
2023/10/18 08:54:46;;;;;;;29.38;16.90;;;;;;;6.26;78.33;98505.09;4999704;28;20037;-80
2023/10/18 08:57:15;;;;;;;25.48;16.85;;;;;;;5.96;81.43;98515.75;4991723;28;21962;-80
2023/10/18 08:59:45;;;;;;;28.38;17.20;;;;;;;5.90;81.79;98520.09;4988486;28;20083;-81
2023/10/18 09:02:19;;;;;;;30.52;17.77;;;;;;;6.09;80.63;98502.31;4992142;28;20050;-81
2023/10/18 09:04:52;;;;;;;27.20;18.15;;;;;;;6.07;80.46;98500.91;4977969;28;20029;-81
2023/10/18 09:07:21;;;;;;;26.45;16.30;;;;;;;6.46;78.40;98509.03;4990850;28;20041;-80
2023/10/18 09:09:56;;;;;;;23.30;15.85;;;;;;;6.48;77.52;98499.00;5004441;28;20044;-81
2023/10/18 09:15:35;;;;;;;24.90;15.07;;;;;;;6.54;78.23;98482.16;4977693;28;20037;-81
2023/10/18 09:18:04;;;;;;;26.20;16.15;;;;;;;6.67;77.70;98495.19;4977739;28;20286;-80
2023/10/18 09:20:30;;;;;;;23.38;14.70;;;;;;;6.76;77.23;98492.97;4993851;28;20151;-80
2023/10/18 09:23:14;;;;;;;26.27;15.13;;;;;;;6.80;77.51;98484.31;5003630;28;20037;-80
2023/10/18 09:25:50;;;;;;;22.13;14.05;;;;;;;6.91;77.29;98490.66;4994253;28;20140;-80
2023/10/18 09:28:25;;;;;;;24.33;16.13;;;;;;;6.81;76.98;98477.19;4989108;28;20042;-80
2023/10/18 09:31:00;;;;;;;23.50;14.65;;;;;;;6.92;78.09;98479.00;5012238;28;20033;-80
2023/10/18 09:33:32;;;;;;;22.47;15.80;;;;;;;6.78;78.12;98477.63;5002790;28;20037;-80
2023/10/18 09:36:01;;;;;;;21.20;14.38;;;;;;;7.12;77.17;98478.63;4978239;28;20354;-80
2023/10/18 09:38:39;;;;;;;24.60;15.93;;;;;;;7.29;75.86;98480.31;5012092;28;20768;-81
2023/10/18 09:41:06;;;;;;;19.73;13.55;;;;;;;7.14;78.10;98473.88;5030367;28;20497;-80
2023/10/18 09:43:33;;;;;;;23.92;14.23;;;;;;;7.21;77.32;98478.00;5035005;28;20037;-80
2023/10/18 09:45:59;;;;;;;22.52;14.63;;;;;;;7.19;78.03;98456.19;4992438;28;20037;-80
2023/10/18 09:48:26;;;;;;;18.52;13.65;;;;;;;7.35;76.13;98446.69;4997574;28;20397;-80
2023/10/18 09:50:53;;;;;;;26.55;17.63;;;;;;;6.96;78.77;98458.94;4990255;28;20037;-80
2023/10/18 09:53:22;;;;;;;29.48;17.83;;;;;;;6.97;79.18;98446.47;5018929;28;20026;-80
2023/10/18 09:55:50;;;;;;;24.48;15.35;;;;;;;6.75;80.00;98448.91;5009177;28;20026;-80
2023/10/18 09:58:18;;;;;;;29.50;15.68;;;;;;;7.10;78.74;98444.34;4988502;28;20034;-80
2023/10/18 10:00:50;;;;;;;20.73;13.32;;;;;;;7.50;76.55;98439.00;5008844;28;20068;-80
2023/10/18 10:03:24;;;;;;;18.08;12.80;;;;;;;7.54;76.39;98426.84;5004366;28;20029;-80
2023/10/18 10:05:50;;;;;;;19.13;13.20;;;;;;;7.56;77.14;98430.88;4985321;28;20032;-80
2023/10/18 10:08:18;;;;;;;19.55;12.80;;;;;;;7.40;77.17;98428.97;5005495;28;20094;-80
2023/10/18 10:10:45;;;;;;;21.40;12.82;;;;;;;7.40;77.39;98415.72;4985549;28;20041;-80
2023/10/18 10:13:18;;;;;;;22.38;13.50;;;;;;;7.32;76.79;98413.44;4986840;28;20040;-80
2023/10/18 10:15:55;;;;;;;19.30;12.15;;;;;;;7.64;76.49;98407.63;4992725;28;20080;-80
2023/10/18 10:18:34;;;;;;;18.63;12.15;;;;;;;7.48;76.94;98417.19;4979981;28;20052;-80
2023/10/18 10:21:07;;;;;;;18.27;12.65;;;;;;;7.49;76.09;98406.31;5025725;28;20025;-80
2023/10/18 10:23:33;;;;;;;19.70;13.77;;;;;;;7.65;75.77;98395.94;5009568;28;20029;-80
2023/10/18 10:26:11;;;;;;;18.73;11.13;;;;;;;7.75;76.21;98390.81;5006327;28;20045;-80
2023/10/18 10:29:09;;;;;;;23.85;12.90;;;;;;;7.47;76.83;98391.66;4997400;28;20121;-80
2023/10/18 10:31:55;;;;;;;20.45;11.98;;;;;;;7.42;76.69;98376.47;4994423;28;20576;-80
2023/10/18 10:34:32;;;;;;;21.75;13.50;;;;;;;7.68;76.74;98385.66;4987856;28;20116;-80
2023/10/18 10:37:18;;;;;;;19.42;13.50;;;;;;;7.77;76.04;98370.94;5005716;28;20454;-80
2023/10/18 10:39:49;;;;;;;19.92;13.20;;;;;;;7.97;75.95;98378.41;4989729;28;20025;-80
2023/10/18 10:42:41;;;;;;;19.88;11.23;;;;;;;8.22;75.45;98373.47;5024993;28;20124;-80
2023/10/18 10:45:23;;;;;;;15.70;11.30;;;;;;;8.30;75.85;98357.09;4990077;28;20029;-80
2023/10/18 10:47:50;;;;;;;13.05;10.80;;;;;;;8.34;75.13;98360.91;4998462;28;20034;-80
2023/10/18 10:50:51;;;;;;;20.15;11.63;;;;;;;8.03;73.76;98358.84;5001142;28;20030;-80
2023/10/18 10:53:44;;;;;;;20.00;11.32;;;;;;;8.39;75.10;98352.19;4986434;28;20029;-80
2023/10/18 10:56:19;;;;;;;15.38;10.48;;;;;;;8.61;74.59;98335.19;5002728;28;22041;-80
2023/10/18 10:58:54;;;;;;;13.75;9.73;;;;;;;8.76;74.01;98335.34;4987365;28;20033;-80
2023/10/18 11:01:31;;;;;;;13.73;10.30;;;;;;;8.82;73.81;98328.25;4992815;28;20616;-80
2023/10/18 11:03:59;;;;;;;13.60;9.30;;;;;;;8.90;73.91;98323.28;4986541;28;20042;-79
2023/10/18 11:06:26;;;;;;;19.02;10.90;;;;;;;8.72;73.15;98315.63;4985119;28;20060;-80
2023/10/18 11:08:53;;;;;;;18.08;10.30;;;;;;;9.17;72.54;98307.31;4990798;28;20038;-80
2023/10/18 11:11:22;;;;;;;15.63;9.88;;;;;;;9.11;71.62;98302.19;5003139;28;20045;-80
2023/10/18 11:13:51;;;;;;;15.65;10.68;;;;;;;9.13;72.59;98287.56;4987133;28;20498;-80
2023/10/18 11:16:24;;;;;;;17.27;10.35;;;;;;;9.36;71.41;98294.41;5009916;28;20029;-80
2023/10/18 11:18:49;;;;;;;14.80;10.48;;;;;;;9.50;71.70;98282.28;5005612;28;20037;-80
2023/10/18 11:21:19;;;;;;;13.63;10.00;;;;;;;9.23;69.63;98274.34;4971644;28;20042;-80
2023/10/18 11:24:02;;;;;;;14.48;10.60;;;;;;;9.32;71.00;98274.69;4988038;28;20115;-80
2023/10/18 11:26:28;;;;;;;12.88;10.15;;;;;;;9.27;69.15;98274.63;4986900;28;20041;-80
2023/10/18 11:28:59;;;;;;;15.18;10.23;;;;;;;9.39;69.30;98262.75;4990195;28;21107;-80
2023/10/18 11:31:29;;;;;;;15.07;10.18;;;;;;;9.17;67.18;98247.94;5001052;28;20455;-80
2023/10/18 11:34:05;;;;;;;13.35;9.55;;;;;;;9.62;69.63;98245.59;4991661;28;20029;-80
2023/10/18 11:36:32;;;;;;;18.40;10.07;;;;;;;9.48;67.83;98242.56;5003102;28;20029;-80
2023/10/18 11:41:41;;;;;;;12.93;9.02;;;;;;;9.45;67.35;98235.09;5028498;28;20033;-80
2023/10/18 11:44:10;;;;;;;13.07;9.15;;;;;;;9.52;67.99;98240.22;5008943;28;20025;-80
2023/10/18 11:46:58;;;;;;;13.93;9.90;;;;;;;9.16;65.93;98235.66;5005820;28;20108;-80
2023/10/18 11:49:37;;;;;;;11.15;9.38;;;;;;;9.09;65.97;98213.81;5024592;28;20028;-80
2023/10/18 11:52:03;;;;;;;17.15;9.38;;;;;;;9.09;65.96;98219.91;5042555;28;20037;-80
2023/10/18 11:54:36;;;;;;;10.30;8.57;;;;;;;9.28;67.22;98207.81;5001334;28;20060;-80
2023/10/18 11:57:06;;;;;;;14.45;8.73;;;;;;;9.37;66.83;98213.47;4989814;28;20029;-79
2023/10/18 11:59:50;;;;;;;13.18;9.05;;;;;;;9.41;66.86;98193.25;5008567;28;20136;-80
2023/10/18 12:02:15;;;;;;;15.40;8.02;;;;;;;9.70;67.08;98211.28;5007609;28;20025;-80
2023/10/18 12:04:41;;;;;;;15.18;8.60;;;;;;;9.82;68.09;98203.91;4991285;28;20048;-80
2023/10/18 12:07:08;;;;;;;16.70;10.15;;;;;;;9.54;66.34;98195.47;4977246;28;20112;-80
2023/10/18 12:09:42;;;;;;;14.98;8.75;;;;;;;9.51;67.35;98188.78;4993735;28;20040;-81
2023/10/18 12:12:12;;;;;;;18.52;10.32;;;;;;;9.32;68.03;98192.94;5006904;28;20034;-80